West Stafford, Connecticut
Current Conditions -  °F | °C
As of 2:52 PM on Friday 24 Oct 2014 (Local Time) from KIJD Reporting Station
Overcast Overcast  
Wind Chill: 54°   Ceiling: 2800
Heat Index: 54°   Visibility: 10mi
Dew Point: 42°   Wind: 7mph
Humidity: 64%   Direction: 330°NNW
Pressure: 29.72"   Gusts: NA
Location:  41.9885°N, 72.2592°W
Report Text: KIJD 241852Z AUTO 33006KT 10SM OVC028 12/06 A2972 RMK AO2 SLP065 T01220056
Loading
Personal Weather Stations






























Interactive Weather Map
Tropical Storm Tracking
New forecast layout! Learn more

10-Day Weather Forecast

Advertisements
Track Severe Weather on mobile